Time;durP1;ratioP1;P1;durP2;ratioP2;P2;SDS_P1;SDS_P2;PMS_P1;PMS_P2;Temp;Humidity;BMP_temperature;BMP_pressure;BME280_temperature;BME280_humidity;BME280_pressure;Samples;Min_cycle;Max_cycle;Signal;HPM_P1;HPM_P2
2021/03/04 00:02:23;;;;;;;2.7;1;;;;;;;4.76;64.06543;945.1847;;;;
2021/03/04 00:04:48;;;;;;;1;0.8;;;;;;;4.71;63.74121;945.098;;;;
2021/03/04 00:07:13;;;;;;;2.7;1.3;;;;;;;4.65;63.97949;945.1342;;;;
2021/03/04 00:09:38;;;;;;;5.1;1.3;;;;;;;4.7;64.15723;945.1105;;;;
2021/03/04 00:12:07;;;;;;;3.7;1.4;;;;;;;4.77;64.17773;945.0925;;;;
2021/03/04 00:14:37;;;;;;;4.1;1.5;;;;;;;4.73;64.4541;945.0475;;;;
2021/03/04 00:17:02;;;;;;;3.7;2.3;;;;;;;4.67;64.52344;945.0087;;;;
2021/03/04 00:19:31;;;;;;;3.4;1.6;;;;;;;4.72;64.31738;945.0061;;;;
2021/03/04 00:21:56;;;;;;;4.3;1.5;;;;;;;4.76;64.2002;944.9282;;;;
2021/03/04 00:24:21;;;;;;;3.1;1.7;;;;;;;4.78;64.23535;944.962;;;;
2021/03/04 00:26:46;;;;;;;2.3;1.1;;;;;;;4.81;63.9043;944.8937;;;;
2021/03/04 00:29:11;;;;;;;7;1.7;;;;;;;4.81;63.84668;944.8524;;;;
2021/03/04 00:31:36;;;;;;;2.1;1.2;;;;;;;4.77;63.99902;944.8239;;;;
2021/03/04 00:34:03;;;;;;;8.5;1.6;;;;;;;4.78;64.24805;944.8116;;;;
2021/03/04 00:36:28;;;;;;;3.3;1.3;;;;;;;4.66;64.89355;944.823;;;;
2021/03/04 00:38:54;;;;;;;4.2;1.1;;;;;;;4.58;65.10645;944.765;;;;
2021/03/04 00:41:19;;;;;;;1.3;1;;;;;;;4.5;65.63477;944.7054;;;;
2021/03/04 00:43:45;;;;;;;2.1;1.1;;;;;;;4.41;66.01563;944.6577;;;;
2021/03/04 00:46:10;;;;;;;2.4;1.5;;;;;;;4.43;66.05371;944.695;;;;
2021/03/04 00:48:37;;;;;;;5;1.4;;;;;;;4.48;65.72266;944.6395;;;;
2021/03/04 00:51:02;;;;;;;2.3;1.1;;;;;;;4.54;65.20215;944.5472;;;;
2021/03/04 00:53:28;;;;;;;4.9;0.9;;;;;;;4.47;65.42773;944.6158;;;;
2021/03/04 00:55:53;;;;;;;0.9;0.6;;;;;;;4.42;64.99316;944.5871;;;;
2021/03/04 00:58:20;;;;;;;2.2;1.3;;;;;;;4.31;64.97656;944.5435;;;;
2021/03/04 01:00:45;;;;;;;1.1;0.8;;;;;;;4.33;64.90039;944.5759;;;;
2021/03/04 01:03:10;;;;;;;3.8;1.5;;;;;;;4.35;64.47363;944.5466;;;;
2021/03/04 01:05:35;;;;;;;1.4;0.7;;;;;;;4.41;64.36133;944.5488;;;;
2021/03/04 01:08:00;;;;;;;1.9;1;;;;;;;4.5;64.25;944.5486;;;;
2021/03/04 01:10:31;;;;;;;1.4;1.2;;;;;;;4.36;64.48926;944.4558;;;;
2021/03/04 01:12:58;;;;;;;6;0.9;;;;;;;4.34;64.74414;944.4232;;;;
2021/03/04 01:15:30;;;;;;;1.4;1;;;;;;;4.28;64.44336;944.4651;;;;
2021/03/04 01:17:59;;;;;;;1.7;1.2;;;;;;;4.29;64.64746;944.3953;;;;
2021/03/04 01:20:26;;;;;;;2;1.1;;;;;;;4.4;64.42773;944.3597;;;;
2021/03/04 01:22:58;;;;;;;1.8;1.1;;;;;;;4.36;64.48828;944.3318;;;;
2021/03/04 01:25:29;;;;;;;1.4;0.9;;;;;;;4.42;64.30664;944.2922;;;;
2021/03/04 01:27:54;;;;;;;2.3;1.2;;;;;;;4.36;64.33008;944.2996;;;;
2021/03/04 01:30:24;;;;;;;0.9;0.8;;;;;;;4.26;64.83496;944.2547;;;;
2021/03/04 01:32:54;;;;;;;0.8;0.7;;;;;;;4.11;65.48633;944.2431;;;;
2021/03/04 01:35:24;;;;;;;1.5;1.1;;;;;;;4.18;65.42871;944.1994;;;;
2021/03/04 01:37:55;;;;;;;3.8;1.5;;;;;;;4.13;65.74707;944.1973;;;;
2021/03/04 01:40:33;;;;;;;3.2;1;;;;;;;3.98;66.22949;944.171;;;;
2021/03/04 01:43:07;;;;;;;2.5;1.4;;;;;;;3.94;66.66113;944.1345;;;;
2021/03/04 01:45:34;;;;;;;4.5;1.7;;;;;;;3.95;66.29297;944.1135;;;;
2021/03/04 01:48:07;;;;;;;2.8;1.1;;;;;;;3.88;66.2832;944.0201;;;;
2021/03/04 01:50:32;;;;;;;0.9;0.8;;;;;;;3.86;65.78418;943.9863;;;;
2021/03/04 01:52:58;;;;;;;1.6;1;;;;;;;3.85;65.74902;943.9338;;;;
2021/03/04 01:55:28;;;;;;;2.1;1.3;;;;;;;3.86;66.33496;943.9832;;;;
2021/03/04 01:57:53;;;;;;;2;1.1;;;;;;;3.9;66.02637;943.9625;;;;
2021/03/04 02:00:20;;;;;;;5.3;1.7;;;;;;;3.9;66.26367;943.839;;;;
2021/03/04 02:02:47;;;;;;;1.2;0.6;;;;;;;4.02;65.6748;943.9138;;;;
2021/03/04 02:05:24;;;;;;;1.1;0.9;;;;;;;4.11;65.57617;943.8772;;;;
2021/03/04 02:07:55;;;;;;;2.7;1.2;;;;;;;4.09;65.80957;943.8602;;;;
2021/03/04 02:10:26;;;;;;;2;0.8;;;;;;;3.94;66.4248;943.8351;;;;
2021/03/04 02:12:51;;;;;;;1.1;0.9;;;;;;;3.92;66.33398;943.8187;;;;
2021/03/04 02:15:16;;;;;;;2.3;1.1;;;;;;;3.82;66.6543;943.7463;;;;
2021/03/04 02:17:57;;;;;;;0.7;0.7;;;;;;;3.85;66.79297;943.7941;;;;
2021/03/04 02:20:36;;;;;;;2.7;0.9;;;;;;;3.66;66.56152;943.6478;;;;
2021/03/04 02:23:05;;;;;;;1;0.6;;;;;;;3.63;67.44434;943.6912;;;;
2021/03/04 02:25:35;;;;;;;0.5;0.5;;;;;;;3.63;67.50098;943.6661;;;;
2021/03/04 02:28:03;;;;;;;1.5;0.7;;;;;;;3.64;67.32422;943.6147;;;;
2021/03/04 02:30:37;;;;;;;0.5;0.5;;;;;;;3.83;66.71289;943.6169;;;;
2021/03/04 02:33:08;;;;;;;3.7;1.2;;;;;;;3.9;65.98242;943.6114;;;;
2021/03/04 02:35:36;;;;;;;3.7;1.1;;;;;;;4.02;65.32422;943.5244;;;;
2021/03/04 02:38:06;;;;;;;2.3;0.7;;;;;;;4.06;65.6123;943.6065;;;;
2021/03/04 02:40:31;;;;;;;2.5;0.7;;;;;;;4.01;65.94141;943.5545;;;;
2021/03/04 02:42:59;;;;;;;2.7;1.3;;;;;;;3.95;66.12598;943.5742;;;;
2021/03/04 02:45:24;;;;;;;1.5;1.1;;;;;;;3.94;66.16797;943.5012;;;;
2021/03/04 02:47:53;;;;;;;3.7;0.8;;;;;;;3.95;66.00098;943.4281;;;;
2021/03/04 02:50:18;;;;;;;2.6;1.4;;;;;;;3.93;66.12012;943.3295;;;;
2021/03/04 02:52:47;;;;;;;1.6;0.8;;;;;;;3.87;66.04395;943.361;;;;
2021/03/04 02:55:11;;;;;;;4.8;1.3;;;;;;;3.79;66.53711;943.3462;;;;
2021/03/04 02:57:37;;;;;;;2.2;1;;;;;;;3.87;66.67383;943.3484;;;;
2021/03/04 03:00:02;;;;;;;3.3;1;;;;;;;3.81;66.7998;943.327;;;;
2021/03/04 03:02:27;;;;;;;1.5;1;;;;;;;3.86;66.7627;943.3297;;;;
2021/03/04 03:04:52;;;;;;;1;0.8;;;;;;;3.89;66.83398;943.2506;;;;
2021/03/04 03:07:18;;;;;;;1.4;0.9;;;;;;;3.98;66.41016;943.3058;;;;
2021/03/04 03:09:43;;;;;;;0.6;0.6;;;;;;;4.01;65.97656;943.2642;;;;
2021/03/04 03:12:08;;;;;;;0.6;0.6;;;;;;;3.98;66.1416;943.2469;;;;
2021/03/04 03:14:36;;;;;;;1.2;0.9;;;;;;;3.87;66.55957;943.253;;;;
2021/03/04 03:17:08;;;;;;;1.2;0.9;;;;;;;3.86;66.83008;943.2399;;;;
2021/03/04 03:19:45;;;;;;;1.2;1.1;;;;;;;3.81;66.5293;943.1671;;;;
2021/03/04 03:22:10;;;;;;;1.3;0.9;;;;;;;3.78;66.89551;943.1813;;;;
2021/03/04 03:24:38;;;;;;;1.5;0.9;;;;;;;3.84;66.89258;943.2595;;;;
2021/03/04 03:27:03;;;;;;;1.2;0.8;;;;;;;3.87;66.71875;943.1436;;;;
2021/03/04 03:29:33;;;;;;;1.5;0.9;;;;;;;3.9;66.80273;943.2545;;;;
2021/03/04 03:31:58;;;;;;;1.3;0.6;;;;;;;3.85;66.83984;943.2239;;;;
2021/03/04 03:34:28;;;;;;;6.5;1.5;;;;;;;3.9;66.60059;943.2324;;;;
2021/03/04 03:36:53;;;;;;;2;0.8;;;;;;;3.84;66.70215;943.2438;;;;
2021/03/04 03:39:26;;;;;;;0.6;0.5;;;;;;;3.72;67.12207;943.2101;;;;
2021/03/04 03:41:59;;;;;;;6;0.8;;;;;;;3.64;66.70605;943.2305;;;;
2021/03/04 03:44:28;;;;;;;1.3;0.7;;;;;;;3.69;66.51074;943.235;;;;
2021/03/04 03:46:54;;;;;;;0.5;0.4;;;;;;;3.81;65.91211;943.202;;;;
2021/03/04 03:49:24;;;;;;;1;0.7;;;;;;;3.89;65.63281;943.2219;;;;
2021/03/04 03:51:51;;;;;;;0.7;0.7;;;;;;;3.88;65.22656;943.1852;;;;
2021/03/04 03:54:22;;;;;;;0.5;0.5;;;;;;;3.81;65.50586;943.1387;;;;
2021/03/04 03:56:53;;;;;;;15;1.3;;;;;;;3.94;65.22363;943.1058;;;;
2021/03/04 03:59:18;;;;;;;4.4;1.6;;;;;;;4.02;64.56152;943.1747;;;;
2021/03/04 04:02:44;;;;;;;2.1;1.2;;;;;;;4.23;64.42383;943.1638;;;;
2021/03/04 04:05:16;;;;;;;1.1;0.7;;;;;;;4.36;64.10547;943.1942;;;;
2021/03/04 04:07:48;;;;;;;3.9;1.3;;;;;;;4.41;64.125;943.2047;;;;
2021/03/04 04:10:13;;;;;;;1.5;1;;;;;;;4.38;64.3457;943.2498;;;;
2021/03/04 04:12:43;;;;;;;1.3;1.1;;;;;;;4.43;64.35254;943.2213;;;;
2021/03/04 04:15:15;;;;;;;1.5;1.2;;;;;;;4.43;65.08398;943.1859;;;;
2021/03/04 04:17:45;;;;;;;3.3;1.8;;;;;;;4.5;64.55371;943.1804;;;;
2021/03/04 04:20:17;;;;;;;7;1.3;;;;;;;4.54;64.50391;943.1688;;;;
2021/03/04 04:22:43;;;;;;;8.7;1.5;;;;;;;4.56;64.67578;943.175;;;;
2021/03/04 04:25:14;;;;;;;2.3;1.3;;;;;;;4.51;64.43066;943.1903;;;;
2021/03/04 04:27:39;;;;;;;1.6;1.3;;;;;;;4.41;64.83496;943.1472;;;;
2021/03/04 04:30:13;;;;;;;1;0.9;;;;;;;4.43;64.9502;943.1512;;;;
2021/03/04 04:32:38;;;;;;;1.8;1;;;;;;;4.43;65.28711;943.0823;;;;
2021/03/04 04:35:11;;;;;;;0.8;0.6;;;;;;;4.35;65.5127;943.0545;;;;
2021/03/04 04:37:36;;;;;;;0.5;0.5;;;;;;;4.28;65.90527;943.0382;;;;
2021/03/04 04:40:05;;;;;;;1.3;1.1;;;;;;;4.31;65.83203;942.9629;;;;
2021/03/04 04:42:30;;;;;;;0.6;0.6;;;;;;;4.31;65.74121;942.9724;;;;
2021/03/04 04:44:59;;;;;;;1.2;0.7;;;;;;;4.27;66.08301;942.895;;;;
2021/03/04 04:47:24;;;;;;;1;0.8;;;;;;;4.31;65.91016;942.9528;;;;
2021/03/04 04:49:50;;;;;;;2.3;0.7;;;;;;;4.36;66.03125;942.9091;;;;
2021/03/04 04:52:15;;;;;;;1.4;0.9;;;;;;;4.12;66.47559;942.8967;;;;
2021/03/04 04:54:42;;;;;;;1.8;0.8;;;;;;;4.08;66.75098;942.8484;;;;
2021/03/04 04:57:08;;;;;;;1.3;0.8;;;;;;;4.06;67.04102;942.8918;;;;
2021/03/04 04:59:37;;;;;;;3;1;;;;;;;4.08;67.22363;942.85;;;;
2021/03/04 05:02:03;;;;;;;1.7;1;;;;;;;4.12;66.92578;942.8809;;;;
2021/03/04 05:04:28;;;;;;;10.4;1.1;;;;;;;4.23;66.57324;942.8684;;;;
2021/03/04 05:06:53;;;;;;;7;0.8;;;;;;;4.33;66.40723;942.8619;;;;
2021/03/04 05:09:21;;;;;;;12.2;1.3;;;;;;;4.44;66.11133;942.7303;;;;
2021/03/04 05:11:47;;;;;;;2.4;1.6;;;;;;;4.51;65.81738;942.6881;;;;
2021/03/04 05:14:18;;;;;;;7.9;3.4;;;;;;;4.54;65.32715;942.7289;;;;
2021/03/04 05:16:49;;;;;;;4.7;1.8;;;;;;;4.51;65.2207;942.741;;;;
2021/03/04 05:19:20;;;;;;;2.8;1.5;;;;;;;4.5;64.89258;942.7494;;;;
2021/03/04 05:21:52;;;;;;;2.6;1.7;;;;;;;4.43;65.32031;942.7119;;;;
2021/03/04 05:24:22;;;;;;;3;1.6;;;;;;;4.41;65.52051;942.6376;;;;
2021/03/04 05:26:53;;;;;;;3.2;1.9;;;;;;;4.3;66.41406;942.7087;;;;
2021/03/04 05:29:23;;;;;;;2.5;1.2;;;;;;;4.24;66.76563;942.7371;;;;
2021/03/04 05:31:56;;;;;;;2.2;1.4;;;;;;;4.21;66.80664;942.6761;;;;
2021/03/04 05:34:27;;;;;;;1.3;0.8;;;;;;;4.27;66.87109;942.6541;;;;
2021/03/04 05:36:57;;;;;;;2.2;1;;;;;;;4.35;66.60254;942.6075;;;;
2021/03/04 05:39:22;;;;;;;1.2;1.1;;;;;;;4.16;66.97949;942.6375;;;;
2021/03/04 05:41:50;;;;;;;2.4;1.4;;;;;;;4.17;66.86719;942.67;;;;
2021/03/04 05:44:15;;;;;;;4.3;1.4;;;;;;;4.18;66.9248;942.6019;;;;
2021/03/04 05:46:47;;;;;;;4;1.4;;;;;;;4.2;66.91602;942.5664;;;;
2021/03/04 05:49:17;;;;;;;1.6;1.3;;;;;;;4.23;66.59375;942.4504;;;;
2021/03/04 05:51:43;;;;;;;5.6;1.6;;;;;;;4.21;66.55859;942.4697;;;;
2021/03/04 05:54:14;;;;;;;7;1.7;;;;;;;4.26;66.20605;942.4935;;;;
2021/03/04 05:56:40;;;;;;;4.7;2.3;;;;;;;4.31;66.03418;942.4987;;;;
2021/03/04 05:59:10;;;;;;;2.4;1.7;;;;;;;4.33;66.15918;942.4852;;;;
2021/03/04 06:01:35;;;;;;;1.8;1.4;;;;;;;4.21;66.50293;942.4601;;;;
2021/03/04 06:04:03;;;;;;;3.8;1.9;;;;;;;4.15;66.88477;942.5068;;;;
2021/03/04 06:06:28;;;;;;;8.1;1.9;;;;;;;4.08;67.27051;942.4799;;;;
2021/03/04 06:08:59;;;;;;;5.5;2.8;;;;;;;4.11;66.39746;942.4651;;;;
2021/03/04 06:11:30;;;;;;;7.3;4;;;;;;;4.24;66.70898;942.4533;;;;
2021/03/04 06:13:55;;;;;;;9.7;3.1;;;;;;;4.33;66.27344;942.456;;;;
2021/03/04 06:16:36;;;;;;;5.6;2.8;;;;;;;4.33;66.36328;942.4578;;;;
2021/03/04 06:19:05;;;;;;;5.7;1.9;;;;;;;4.31;66.92285;942.4492;;;;
2021/03/04 06:21:39;;;;;;;3.1;1.7;;;;;;;4.2;67.58105;942.439;;;;
2021/03/04 06:24:12;;;;;;;2;1.1;;;;;;;4.23;67.23535;942.4079;;;;
2021/03/04 06:26:44;;;;;;;2.7;1.7;;;;;;;4.26;67.07324;942.3992;;;;
2021/03/04 06:29:11;;;;;;;2;1;;;;;;;4.31;66.61914;942.4379;;;;
2021/03/04 06:31:36;;;;;;;2.1;0.8;;;;;;;4.27;65.85938;942.4185;;;;
2021/03/04 06:34:01;;;;;;;2.6;1.4;;;;;;;4.42;66.01758;942.426;;;;
2021/03/04 06:36:27;;;;;;;2.4;1.2;;;;;;;4.34;64.49707;942.4227;;;;
2021/03/04 06:38:52;;;;;;;3.9;1.8;;;;;;;4.49;64.51953;942.4517;;;;
2021/03/04 06:41:20;;;;;;;5.8;1.5;;;;;;;4.65;64.37402;942.3656;;;;
2021/03/04 06:43:45;;;;;;;3.1;1.7;;;;;;;4.75;64.16504;942.3854;;;;
2021/03/04 06:46:10;;;;;;;2.3;1.5;;;;;;;4.76;63.90625;942.4314;;;;
2021/03/04 06:48:37;;;;;;;1.9;1.1;;;;;;;4.77;63.57129;942.408;;;;
2021/03/04 06:51:02;;;;;;;3;1.3;;;;;;;4.83;63.69141;942.3744;;;;
2021/03/04 06:53:28;;;;;;;4.2;1.7;;;;;;;4.94;63.08789;942.3777;;;;
2021/03/04 06:55:53;;;;;;;2.6;1.3;;;;;;;4.95;62.22168;942.3992;;;;
2021/03/04 06:58:20;;;;;;;1.3;1;;;;;;;4.93;61.06934;942.3506;;;;
2021/03/04 07:00:46;;;;;;;1.7;1.2;;;;;;;5.12;60.98535;942.3318;;;;
2021/03/04 07:03:12;;;;;;;2.8;1.3;;;;;;;5.25;60.59668;942.2603;;;;
2021/03/04 07:05:38;;;;;;;4.1;1.8;;;;;;;5.34;60.51855;942.2277;;;;
2021/03/04 07:08:05;;;;;;;4.5;2.7;;;;;;;5.3;60.68262;942.2413;;;;
2021/03/04 07:10:31;;;;;;;6.1;3.2;;;;;;;5.33;61.82715;942.244;;;;
2021/03/04 07:13:02;;;;;;;5.1;3.6;;;;;;;5.39;60.86426;942.1553;;;;
2021/03/04 07:15:41;;;;;;;9.6;4.6;;;;;;;5.49;60.4043;942.2247;;;;
2021/03/04 07:18:14;;;;;;;3.3;2.1;;;;;;;5.51;58.11719;942.076;;;;
2021/03/04 07:20:40;;;;;;;5.1;2.9;;;;;;;5.65;59.45703;942.0645;;;;
2021/03/04 07:23:05;;;;;;;4.7;1.6;;;;;;;5.81;58.40625;942.135;;;;
2021/03/04 07:25:30;;;;;;;11.9;2.2;;;;;;;5.76;59.34863;942.0824;;;;
2021/03/04 07:28:00;;;;;;;5.4;2.2;;;;;;;5.71;58.84375;942.0884;;;;
2021/03/04 07:30:25;;;;;;;8.8;2.3;;;;;;;5.81;58.72266;942.0694;;;;
2021/03/04 07:32:55;;;;;;;6.5;1.8;;;;;;;5.82;57.88867;942.0539;;;;
2021/03/04 07:35:20;;;;;;;3.8;1.5;;;;;;;5.96;57.77246;942.0604;;;;
2021/03/04 07:37:51;;;;;;;5;1.8;;;;;;;6.03;57.43066;942.0336;;;;
2021/03/04 07:40:21;;;;;;;2.9;1.6;;;;;;;6.09;57.2373;942.027;;;;
2021/03/04 07:42:46;;;;;;;4;2;;;;;;;6.18;56.7959;942.0559;;;;
2021/03/04 07:45:17;;;;;;;3.4;1.7;;;;;;;6.28;58.0293;942.0419;;;;
2021/03/04 07:47:41;;;;;;;1.9;1.3;;;;;;;6.43;55.23438;942.0516;;;;
2021/03/04 07:50:14;;;;;;;5.3;1.7;;;;;;;6.47;55.47656;942.0291;;;;
2021/03/04 07:52:39;;;;;;;1.8;1.2;;;;;;;6.59;54.9375;942.0027;;;;
2021/03/04 07:55:07;;;;;;;15.2;2;;;;;;;6.69;55.93457;942.0092;;;;
2021/03/04 07:57:32;;;;;;;4.4;1.7;;;;;;;6.8;55.36035;941.9411;;;;
2021/03/04 08:00:00;;;;;;;3;1.9;;;;;;;6.82;55.66992;941.9723;;;;
2021/03/04 08:02:26;;;;;;;2.2;1.6;;;;;;;6.93;55.43555;941.9146;;;;
2021/03/04 08:04:57;;;;;;;5.8;2.6;;;;;;;7.04;55.65234;941.8489;;;;
2021/03/04 08:07:24;;;;;;;4.8;2.5;;;;;;;7.09;55.19531;941.8408;;;;
2021/03/04 08:09:49;;;;;;;12.3;3.5;;;;;;;7.02;56.0918;941.8247;;;;
2021/03/04 08:12:13;;;;;;;6.6;3.6;;;;;;;7.09;56.39551;941.8281;;;;
2021/03/04 08:14:43;;;;;;;6.2;3.3;;;;;;;7.23;56.26465;941.829;;;;
2021/03/04 08:17:24;;;;;;;8.6;3.9;;;;;;;7.29;55.94531;941.7628;;;;
2021/03/04 08:20:01;;;;;;;4.2;2.5;;;;;;;7.38;54.66504;941.705;;;;
2021/03/04 08:22:27;;;;;;;4.5;2.5;;;;;;;7.36;54.59375;941.6766;;;;
2021/03/04 08:24:52;;;;;;;3.9;1.4;;;;;;;7.52;53.3457;941.7264;;;;
2021/03/04 08:27:18;;;;;;;4.4;2.2;;;;;;;7.54;53.09863;941.658;;;;
2021/03/04 08:29:43;;;;;;;4.2;1.7;;;;;;;7.6;53.03711;941.6191;;;;
2021/03/04 08:32:08;;;;;;;4.7;1.8;;;;;;;7.58;52.50195;941.6534;;;;
2021/03/04 08:34:37;;;;;;;4.1;1.5;;;;;;;7.61;53.37988;941.6412;;;;
2021/03/04 08:37:02;;;;;;;3.2;1.7;;;;;;;7.85;53.6709;941.6079;;;;
2021/03/04 08:39:29;;;;;;;1.6;1.2;;;;;;;8.09;53.09766;941.5783;;;;
2021/03/04 08:41:55;;;;;;;1.9;1.1;;;;;;;8.28;51.61035;941.5845;;;;
2021/03/04 08:44:20;;;;;;;4;1.6;;;;;;;8.36;50.97266;941.5748;;;;
2021/03/04 08:46:46;;;;;;;2.4;1.1;;;;;;;8.45;50.41504;941.5352;;;;
2021/03/04 08:49:11;;;;;;;16.4;1.9;;;;;;;8.7;49.78516;941.5036;;;;
2021/03/04 08:51:38;;;;;;;3.5;1;;;;;;;8.99;48.68164;941.4203;;;;
2021/03/04 08:54:03;;;;;;;2.1;1.2;;;;;;;8.84;47.61816;941.3752;;;;
2021/03/04 08:56:33;;;;;;;2.9;1.3;;;;;;;9.03;47.68457;941.4348;;;;
2021/03/04 08:58:58;;;;;;;7.8;2;;;;;;;9.18;46.89258;941.3926;;;;
2021/03/04 09:01:29;;;;;;;2.4;1.6;;;;;;;9.47;47.61816;941.3706;;;;
2021/03/04 09:03:54;;;;;;;3.5;1.6;;;;;;;9.61;47.12207;941.3434;;;;
2021/03/04 09:06:19;;;;;;;2.9;1;;;;;;;9.66;45.84082;941.3189;;;;
2021/03/04 09:08:48;;;;;;;5.7;2.1;;;;;;;9.75;45.70117;941.1654;;;;
2021/03/04 09:11:13;;;;;;;6.6;1.4;;;;;;;9.89;46.14941;941.2531;;;;
2021/03/04 09:13:38;;;;;;;3.7;1.7;;;;;;;10.15;45.25293;941.1986;;;;
2021/03/04 09:16:12;;;;;;;3;1.3;;;;;;;10.13;43.29004;941.1483;;;;
2021/03/04 09:18:41;;;;;;;1.5;1.1;;;;;;;10.3;42.33691;941.0591;;;;
2021/03/04 09:21:07;;;;;;;2.1;1;;;;;;;10.44;43.33105;941.0933;;;;
2021/03/04 09:23:37;;;;;;;3.9;0.9;;;;;;;10.44;42.83984;941.0748;;;;
2021/03/04 09:26:05;;;;;;;2.2;1.3;;;;;;;10.5;42.48047;941.0344;;;;
2021/03/04 09:28:30;;;;;;;2;1.1;;;;;;;10.53;43.30664;941.0006;;;;
2021/03/04 09:31:00;;;;;;;1;0.6;;;;;;;10.6;42.36523;940.9044;;;;
2021/03/04 09:33:28;;;;;;;2.7;1.3;;;;;;;10.65;41.71973;940.8783;;;;
2021/03/04 09:35:55;;;;;;;3.5;0.9;;;;;;;10.68;41.34473;940.7742;;;;
2021/03/04 09:38:23;;;;;;;2.8;1;;;;;;;10.71;41.64551;940.8297;;;;
2021/03/04 09:40:52;;;;;;;0.5;0.3;;;;;;;10.71;41.72461;940.7396;;;;
2021/03/04 09:43:23;;;;;;;1.4;0.6;;;;;;;10.75;40.78125;940.7338;;;;
2021/03/04 09:45:56;;;;;;;1.1;0.4;;;;;;;10.79;41.17285;940.6434;;;;
2021/03/04 09:48:20;;;;;;;1.5;0.6;;;;;;;10.71;40.53711;940.5859;;;;
2021/03/04 09:50:45;;;;;;;2.6;1;;;;;;;10.78;40.64746;940.527;;;;
2021/03/04 09:53:16;;;;;;;0.8;0.5;;;;;;;10.95;40.33105;940.55;;;;
2021/03/04 09:55:39;;;;;;;1.2;0.5;;;;;;;11.11;39.99219;940.4988;;;;
2021/03/04 09:58:04;;;;;;;1.7;1;;;;;;;11.1;39.60156;940.4755;;;;
2021/03/04 10:00:29;;;;;;;1.7;0.7;;;;;;;11.37;39.95898;940.4061;;;;
2021/03/04 10:02:57;;;;;;;0.4;0.4;;;;;;;11.52;38.1416;940.3703;;;;
2021/03/04 10:05:21;;;;;;;1.4;0.6;;;;;;;11.7;37.81348;940.2636;;;;
2021/03/04 10:07:46;;;;;;;0.8;0.6;;;;;;;12.08;37.40039;940.3265;;;;
2021/03/04 10:10:15;;;;;;;2.9;1.2;;;;;;;12.05;36.35449;940.3119;;;;
2021/03/04 10:12:40;;;;;;;1.8;0.3;;;;;;;11.79;37.02051;940.2711;;;;
2021/03/04 10:15:05;;;;;;;0.7;0.6;;;;;;;11.85;37.2666;940.2144;;;;
2021/03/04 10:17:38;;;;;;;4.6;1.2;;;;;;;11.7;37.48145;940.1376;;;;
2021/03/04 10:20:03;;;;;;;3.3;0.6;;;;;;;11.86;37.59863;940.1139;;;;
2021/03/04 10:22:31;;;;;;;4.5;0.9;;;;;;;11.87;37.42773;940.094;;;;
2021/03/04 10:24:58;;;;;;;2.5;0.9;;;;;;;11.93;38.14355;940.0881;;;;
2021/03/04 10:27:24;;;;;;;0.3;0.3;;;;;;;12.06;38.12012;939.9464;;;;
2021/03/04 10:29:49;;;;;;;3.2;0.9;;;;;;;12.25;37.61035;939.9822;;;;
2021/03/04 10:32:14;;;;;;;6.7;1.2;;;;;;;12.3;37.36133;939.96;;;;
2021/03/04 10:34:39;;;;;;;4.8;1;;;;;;;12.75;37.20508;939.9419;;;;
2021/03/04 10:37:04;;;;;;;1.5;0.8;;;;;;;13.12;36.16895;939.9196;;;;
2021/03/04 10:39:30;;;;;;;1.1;0.7;;;;;;;13.36;35.36133;939.8886;;;;
2021/03/04 10:41:55;;;;;;;2.8;1.1;;;;;;;13.57;33.82617;939.8811;;;;
2021/03/04 10:44:21;;;;;;;0.8;0.6;;;;;;;13.73;32.86035;939.8142;;;;
2021/03/04 10:46:46;;;;;;;3;0.5;;;;;;;14.47;32.84668;939.7985;;;;
2021/03/04 10:49:11;;;;;;;0.4;0.4;;;;;;;14.53;30.60449;939.755;;;;
2021/03/04 10:51:37;;;;;;;1.6;0.9;;;;;;;15.04;29.61426;939.6902;;;;
2021/03/04 10:54:02;;;;;;;3.5;0.4;;;;;;;15.78;28.95898;939.6694;;;;
2021/03/04 10:56:29;;;;;;;0.5;0.4;;;;;;;16.28;27.62793;939.5145;;;;
2021/03/04 10:58:54;;;;;;;0.3;0.3;;;;;;;16.92;27.50586;939.4769;;;;
2021/03/04 11:01:21;;;;;;;1.1;0.6;;;;;;;16.93;26.98438;939.4165;;;;
2021/03/04 11:03:45;;;;;;;0.2;0.2;;;;;;;17.07;27.3291;939.3434;;;;
2021/03/04 11:06:12;;;;;;;0.8;0.5;;;;;;;16.79;27.75098;939.303;;;;
2021/03/04 11:08:37;;;;;;;0.1;0.1;;;;;;;16.57;26.74219;939.2551;;;;
2021/03/04 11:11:03;;;;;;;0.5;0.3;;;;;;;16.62;26.0625;939.2003;;;;
2021/03/04 11:13:28;;;;;;;0.4;0.3;;;;;;;17.19;26.94238;939.1517;;;;
2021/03/04 11:16:01;;;;;;;0.2;0.2;;;;;;;17.49;24.45508;939.1494;;;;
2021/03/04 11:18:26;;;;;;;1.1;0.2;;;;;;;17.09;23.5625;939.0405;;;;
2021/03/04 11:20:53;;;;;;;1.7;0.5;;;;;;;17.24;24.68457;938.9581;;;;
2021/03/04 11:23:18;;;;;;;0.3;0.2;;;;;;;17.12;23.14746;938.9379;;;;
2021/03/04 11:25:45;;;;;;;1.9;0.2;;;;;;;17.11;23.29785;938.8937;;;;
2021/03/04 11:28:10;;;;;;;0.3;0.2;;;;;;;16.97;25.44531;938.8142;;;;
2021/03/04 11:30:36;;;;;;;0.2;0.2;;;;;;;16.88;26.40137;938.789;;;;
2021/03/04 11:33:03;;;;;;;0.5;0.2;;;;;;;17.13;25.82617;938.7108;;;;
2021/03/04 11:35:29;;;;;;;0.3;0.3;;;;;;;17.21;25.65625;938.6823;;;;
2021/03/04 11:37:54;;;;;;;0.5;0.4;;;;;;;17.71;25.09375;938.6124;;;;
2021/03/04 11:40:20;;;;;;;3.3;0.8;;;;;;;18.3;25.10449;938.5506;;;;
2021/03/04 11:42:45;;;;;;;0.1;0.1;;;;;;;18.57;24.3877;938.5359;;;;
2021/03/04 11:45:11;;;;;;;4.5;0.3;;;;;;;19.71;20.60254;938.4821;;;;
2021/03/04 11:47:36;;;;;;;1;0.2;;;;;;;20.15;17.95117;938.4086;;;;
2021/03/04 11:50:02;;;;;;;0.1;0.1;;;;;;;20.53;16.77441;938.365;;;;
2021/03/04 11:52:27;;;;;;;0.1;0.1;;;;;;;20.23;18;938.2758;;;;
2021/03/04 11:54:53;;;;;;;0.1;0.1;;;;;;;21;18.00781;938.2545;;;;
2021/03/04 11:57:18;;;;;;;0;0;;;;;;;20.68;19.77148;938.2533;;;;
2021/03/04 11:59:45;;;;;;;0.2;0.1;;;;;;;20.65;19.03418;938.0561;;;;
2021/03/04 12:02:10;;;;;;;1.2;0.3;;;;;;;20.6;18.64648;938.0919;;;;
2021/03/04 12:04:37;;;;;;;1.4;0.5;;;;;;;20.19;19.70313;938.0179;;;;
2021/03/04 12:07:02;;;;;;;4.4;0.4;;;;;;;20.39;19.59473;938.0037;;;;
2021/03/04 12:09:27;;;;;;;0.2;0.2;;;;;;;20.62;18.6123;937.8925;;;;
2021/03/04 12:11:53;;;;;;;2.9;0.3;;;;;;;20.94;18.67188;937.8808;;;;
2021/03/04 12:14:18;;;;;;;0.6;0.4;;;;;;;20.29;19.2168;937.7913;;;;
2021/03/04 12:16:48;;;;;;;0.3;0.1;;;;;;;19.84;17.4834;937.7985;;;;
2021/03/04 12:19:13;;;;;;;0.4;0.3;;;;;;;20.11;18.13574;937.7622;;;;
2021/03/04 12:21:40;;;;;;;37;13.9;;;;;;;20.4;19.38477;937.7891;;;;
2021/03/04 12:24:05;;;;;;;3.6;2;;;;;;;20.75;18.29004;937.7771;;;;
2021/03/04 12:26:31;;;;;;;0.5;0.5;;;;;;;20.93;17.93555;937.6956;;;;
2021/03/04 12:28:56;;;;;;;0.6;0.4;;;;;;;20.57;20.40918;937.6334;;;;
2021/03/04 12:31:23;;;;;;;0.5;0.5;;;;;;;20.48;21.44434;937.5502;;;;
2021/03/04 12:33:48;;;;;;;1.4;0.4;;;;;;;20.29;20.75781;937.5999;;;;
2021/03/04 12:36:14;;;;;;;0.8;0.4;;;;;;;19.71;21.43066;937.5623;;;;
2021/03/04 12:38:39;;;;;;;0.5;0.4;;;;;;;19.18;21.83594;937.5572;;;;
2021/03/04 12:41:06;;;;;;;0.2;0.2;;;;;;;18.86;23.60059;937.5672;;;;
2021/03/04 12:43:31;;;;;;;1;0.3;;;;;;;18.52;23.18652;937.5853;;;;
2021/03/04 12:45:57;;;;;;;0.1;0.1;;;;;;;17.83;23.25488;937.5231;;;;
2021/03/04 12:48:23;;;;;;;0.8;0.2;;;;;;;17.25;23.31641;937.5295;;;;
2021/03/04 12:50:50;;;;;;;0.3;0.3;;;;;;;17.18;23;937.4813;;;;
2021/03/04 12:53:15;;;;;;;4.7;0.2;;;;;;;16.93;24.94531;937.4747;;;;
2021/03/04 12:55:40;;;;;;;0.6;0.4;;;;;;;16.77;27.33398;937.5211;;;;
2021/03/04 12:58:05;;;;;;;9.9;0.7;;;;;;;16.73;27.09961;937.5184;;;;
2021/03/04 13:00:32;;;;;;;0.5;0.4;;;;;;;16.95;26.51074;937.4872;;;;
2021/03/04 13:02:57;;;;;;;0.3;0.3;;;;;;;16.69;27.87305;937.4227;;;;
2021/03/04 13:05:25;;;;;;;2.3;0.4;;;;;;;16.85;26.81738;937.3819;;;;
2021/03/04 13:07:49;;;;;;;3.1;0.6;;;;;;;16.83;27.7666;937.4183;;;;
2021/03/04 13:10:15;;;;;;;0.7;0.5;;;;;;;16.62;28.08887;937.3935;;;;
2021/03/04 13:12:40;;;;;;;1;0.6;;;;;;;16.5;28.32422;937.3067;;;;
2021/03/04 13:15:09;;;;;;;2.2;0.3;;;;;;;16.29;28.37988;937.3513;;;;
2021/03/04 13:17:39;;;;;;;0.7;0.5;;;;;;;16.33;29.33105;937.2881;;;;
2021/03/04 13:20:04;;;;;;;1.5;0.8;;;;;;;16.35;28.54492;937.2911;;;;
2021/03/04 13:22:29;;;;;;;3.6;0.4;;;;;;;16.26;29.25781;937.2713;;;;
2021/03/04 13:24:57;;;;;;;0.6;0.4;;;;;;;16.77;28.6543;937.2686;;;;
2021/03/04 13:27:22;;;;;;;0.8;0.6;;;;;;;16.79;28.93359;937.2354;;;;
2021/03/04 13:29:48;;;;;;;9.5;0.8;;;;;;;16.37;30.17871;937.1638;;;;
2021/03/04 13:32:13;;;;;;;0.6;0.6;;;;;;;16.27;30.3916;937.1531;;;;
2021/03/04 13:34:40;;;;;;;3.9;0.9;;;;;;;16.02;30.86035;937.1153;;;;
2021/03/04 13:37:05;;;;;;;0.9;0.6;;;;;;;16.1;30.37988;937.0427;;;;
2021/03/04 13:39:30;;;;;;;0.6;0.5;;;;;;;16.02;30.95215;937.0862;;;;
2021/03/04 13:41:55;;;;;;;0.9;0.6;;;;;;;15.92;31.30371;937.0553;;;;
2021/03/04 13:44:23;;;;;;;2.4;0.7;;;;;;;16.06;31.04785;937.0369;;;;
2021/03/04 13:46:48;;;;;;;3.9;0.5;;;;;;;15.9;31.82227;937.0283;;;;
2021/03/04 13:49:14;;;;;;;6.2;0.5;;;;;;;15.7;32.41992;936.9318;;;;
2021/03/04 13:51:39;;;;;;;6.3;0.8;;;;;;;15.68;32.92676;937.0556;;;;
2021/03/04 13:54:07;;;;;;;1.5;0.8;;;;;;;15.56;33.0918;937.034;;;;
2021/03/04 13:56:32;;;;;;;1.6;0.7;;;;;;;15.97;32.87988;936.972;;;;
2021/03/04 13:59:00;;;;;;;0.6;0.6;;;;;;;15.91;33.2334;936.9656;;;;
2021/03/04 14:01:25;;;;;;;1.7;1;;;;;;;15.94;33.54785;936.9908;;;;
2021/03/04 14:03:52;;;;;;;1;0.4;;;;;;;15.83;33.89746;937.0284;;;;
2021/03/04 14:06:17;;;;;;;2.4;1;;;;;;;15.7;34.78906;936.9911;;;;
2021/03/04 14:08:42;;;;;;;1.7;1.1;;;;;;;15.71;34.4541;937.0136;;;;
2021/03/04 14:11:07;;;;;;;0.8;0.8;;;;;;;15.69;34.68359;936.9688;;;;
2021/03/04 14:13:32;;;;;;;1.7;0.9;;;;;;;15.48;35.49902;936.9611;;;;
2021/03/04 14:16:11;;;;;;;2.1;1.2;;;;;;;15.43;36.20996;936.9512;;;;
2021/03/04 14:18:39;;;;;;;6.3;1.2;;;;;;;15.69;35.06445;936.9504;;;;
2021/03/04 14:21:05;;;;;;;2.4;1.6;;;;;;;16.58;34.30371;936.865;;;;
2021/03/04 14:23:30;;;;;;;4;1.3;;;;;;;16.85;33.1084;936.8664;;;;
2021/03/04 14:25:59;;;;;;;1.1;0.9;;;;;;;17.21;32.48535;936.8829;;;;
2021/03/04 14:28:22;;;;;;;4.5;1;;;;;;;17.44;32.40918;936.8043;;;;
2021/03/04 14:30:50;;;;;;;1;0.9;;;;;;;17.01;32.70215;936.7614;;;;
2021/03/04 14:33:16;;;;;;;2.4;1.7;;;;;;;16.88;33.5498;936.7701;;;;
2021/03/04 14:35:40;;;;;;;1.9;1;;;;;;;17.13;32.5957;936.7452;;;;
2021/03/04 14:38:05;;;;;;;1.9;1.1;;;;;;;17.6;31.8877;936.7527;;;;